Jeanie G — WDB2354 — position and weather

sailwx.info

Track history (hours):
 
Tides and Currents Weather Stations Pressure Air Temp Water Temp Dewpoint Dewpoint Depression Visibility Wind Speed Wind Dir Waves Ship Positions

Jeanie G

Owner: MARTIN OPERATING PARTNERSHIP LP, VIDOR, TX. More information available from US FCC via Universal Licensing System and Coast Guard Vessel Documentation Center.

Last reported at 2014-Nov-21 02:17 UTC. Time now 2014-Nov-24 21:33 UTC.
Position N 29°55' W 090°06'.

MMSI: 366875010.

Date/timePositionNaut miles runAvg speedWind from/ knotsBaromVisibWave heightAir tempDewpointWater temp
2014-Nov-21 02:17N 29°55' W 090°06'2 0.9
2014-Nov-21 00:33N 29°53' W 090°05'0 0.0
2014-Nov-20 23:25N 29°53' W 090°05'28 3.5
2014-Nov-20 15:33N 29°33' W 090°27'5 5.4
2014-Nov-20 14:33N 29°34' W 090°33'11 1.9
2014-Nov-20 08:23N 29°32' W 090°46'4 5.5
2014-Nov-20 07:34N 29°32' W 090°51'6 5.5
2014-Nov-20 06:33N 29°34' W 090°57'5 5.2
2014-Nov-20 05:33N 29°37' W 091°02'5 5.0
2014-Nov-20 04:34N 29°39' W 091°07'5 4.6
2014-Nov-20 03:33N 29°41' W 091°12'5 5.0
2014-Nov-20 02:34N 29°39' W 091°17'5 5.2
2014-Nov-20 01:34N 29°39' W 091°23'5 5.4
2014-Nov-20 00:33N 29°41' W 091°28'5 5.4
2014-Nov-19 23:33N 29°44' W 091°34'  
Track history (hours):
 
Tides and Currents Weather Stations Pressure Air Temp Water Temp Dewpoint Dewpoint Depression Visibility Wind Speed Wind Dir Waves Ship Positions

Jeanie G

Owner: MARTIN OPERATING PARTNERSHIP LP, VIDOR, TX. More information available from US FCC via Universal Licensing System and Coast Guard Vessel Documentation Center.

Last reported at 2014-Nov-21 02:17 UTC. Time now 2014-Nov-24 21:33 UTC.
Position N 29°55' W 090°06'.

MMSI: 366875010.

Date/timePositionNaut miles runAvg speedWind from/ knotsBaromVisibWave heightAir tempDewpointWater temp
2014-Nov-21 02:17N 29°55' W 090°06'2 0.9
2014-Nov-21 00:33N 29°53' W 090°05'0 0.0
2014-Nov-20 23:25N 29°53' W 090°05'28 3.5
2014-Nov-20 15:33N 29°33' W 090°27'5 5.4
2014-Nov-20 14:33N 29°34' W 090°33'11 1.9
2014-Nov-20 08:23N 29°32' W 090°46'4 5.5
2014-Nov-20 07:34N 29°32' W 090°51'6 5.5
2014-Nov-20 06:33N 29°34' W 090°57'5 5.2
2014-Nov-20 05:33N 29°37' W 091°02'5 5.0
2014-Nov-20 04:34N 29°39' W 091°07'5 4.6
2014-Nov-20 03:33N 29°41' W 091°12'5 5.0
2014-Nov-20 02:34N 29°39' W 091°17'5 5.2
2014-Nov-20 01:34N 29°39' W 091°23'5 5.4
2014-Nov-20 00:33N 29°41' W 091°28'5 5.4
2014-Nov-19 23:33N 29°44' W 091°34'  

Dump ship's entire track history